sensor_id;sensor_type;location;lat;lon;timestamp;pressure;altitude;pressure_sealevel;temperature;humidity
54870;BME280;40756;-37.950;145.008;2023-04-25T00:00:08;102625.47;;;19.91;45.14
54870;BME280;40756;-37.950;145.008;2023-04-25T00:02:38;102622.93;;;20.58;44.86
54870;BME280;40756;-37.950;145.008;2023-04-25T00:05:08;102618.75;;;20.71;45.21
54870;BME280;40756;-37.950;145.008;2023-04-25T00:07:38;102616.03;;;20.70;44.94
54870;BME280;40756;-37.950;145.008;2023-04-25T00:10:09;102610.65;;;20.50;44.45
54870;BME280;40756;-37.950;145.008;2023-04-25T00:12:39;102609.38;;;21.33;44.43
54870;BME280;40756;-37.950;145.008;2023-04-25T00:15:09;102605.95;;;21.02;43.60
54870;BME280;40756;-37.950;145.008;2023-04-25T00:17:39;102605.59;;;20.97;43.06
54870;BME280;40756;-37.950;145.008;2023-04-25T00:20:10;102602.71;;;20.93;43.41
54870;BME280;40756;-37.950;145.008;2023-04-25T00:22:40;102596.60;;;21.23;42.65
54870;BME280;40756;-37.950;145.008;2023-04-25T00:25:09;102596.92;;;21.15;42.74
54870;BME280;40756;-37.950;145.008;2023-04-25T00:27:39;102593.46;;;21.31;42.16
54870;BME280;40756;-37.950;145.008;2023-04-25T00:30:09;102591.38;;;21.84;42.28
54870;BME280;40756;-37.950;145.008;2023-04-25T00:32:39;102589.11;;;21.88;42.21
54870;BME280;40756;-37.950;145.008;2023-04-25T00:35:09;102588.11;;;22.12;42.51
54870;BME280;40756;-37.950;145.008;2023-04-25T00:37:39;102587.47;;;22.08;41.59
54870;BME280;40756;-37.950;145.008;2023-04-25T00:40:09;102586.93;;;22.05;41.99
54870;BME280;40756;-37.950;145.008;2023-04-25T00:42:38;102590.02;;;21.95;41.32
54870;BME280;40756;-37.950;145.008;2023-04-25T00:45:12;102592.06;;;22.26;41.15
54870;BME280;40756;-37.950;145.008;2023-04-25T00:47:42;102594.02;;;22.26;40.82
54870;BME280;40756;-37.950;145.008;2023-04-25T00:50:13;102591.87;;;22.59;40.97
54870;BME280;40756;-37.950;145.008;2023-04-25T00:52:44;102594.84;;;22.74;39.71
54870;BME280;40756;-37.950;145.008;2023-04-25T00:55:14;102594.49;;;22.96;40.61
54870;BME280;40756;-37.950;145.008;2023-04-25T00:57:43;102591.90;;;23.17;39.75
54870;BME280;40756;-37.950;145.008;2023-04-25T01:00:13;102588.34;;;23.61;39.07
54870;BME280;40756;-37.950;145.008;2023-04-25T01:02:43;102584.61;;;23.33;39.57
54870;BME280;40756;-37.950;145.008;2023-04-25T01:05:14;102581.96;;;23.30;39.21
54870;BME280;40756;-37.950;145.008;2023-04-25T01:07:44;102577.69;;;23.31;39.76
54870;BME280;40756;-37.950;145.008;2023-04-25T01:10:14;102574.04;;;23.48;38.82
54870;BME280;40756;-37.950;145.008;2023-04-25T01:12:43;102569.64;;;23.63;38.25
54870;BME280;40756;-37.950;145.008;2023-04-25T01:15:13;102561.49;;;23.90;37.63
54870;BME280;40756;-37.950;145.008;2023-04-25T01:17:42;102557.82;;;23.76;38.13
54870;BME280;40756;-37.950;145.008;2023-04-25T01:20:12;102553.59;;;24.06;37.31
54870;BME280;40756;-37.950;145.008;2023-04-25T01:22:43;102552.99;;;24.08;35.84
54870;BME280;40756;-37.950;145.008;2023-04-25T01:25:13;102548.99;;;23.92;36.66
54870;BME280;40756;-37.950;145.008;2023-04-25T01:27:43;102546.91;;;24.57;35.58
54870;BME280;40756;-37.950;145.008;2023-04-25T01:30:13;102544.96;;;24.06;35.97
54870;BME280;40756;-37.950;145.008;2023-04-25T01:32:43;102537.91;;;24.64;35.86
54870;BME280;40756;-37.950;145.008;2023-04-25T01:35:13;102538.98;;;24.60;36.35
54870;BME280;40756;-37.950;145.008;2023-04-25T01:37:44;102536.71;;;24.21;37.03
54870;BME280;40756;-37.950;145.008;2023-04-25T01:40:14;102537.72;;;24.92;35.24
54870;BME280;40756;-37.950;145.008;2023-04-25T01:42:45;102530.01;;;24.87;34.51
54870;BME280;40756;-37.950;145.008;2023-04-25T01:45:14;102527.45;;;24.63;34.80
54870;BME280;40756;-37.950;145.008;2023-04-25T01:47:44;102524.37;;;24.62;33.70
54870;BME280;40756;-37.950;145.008;2023-04-25T01:50:14;102517.35;;;25.06;33.66
54870;BME280;40756;-37.950;145.008;2023-04-25T01:52:43;102515.13;;;24.69;31.87
54870;BME280;40756;-37.950;145.008;2023-04-25T01:55:12;102513.38;;;24.88;32.47
54870;BME280;40756;-37.950;145.008;2023-04-25T01:57:42;102506.88;;;25.32;32.77
54870;BME280;40756;-37.950;145.008;2023-04-25T02:00:12;102501.83;;;25.44;32.46
54870;BME280;40756;-37.950;145.008;2023-04-25T02:02:42;102491.07;;;25.70;32.18
54870;BME280;40756;-37.950;145.008;2023-04-25T02:05:12;102490.21;;;26.02;30.98
54870;BME280;40756;-37.950;145.008;2023-04-25T02:07:42;102488.52;;;25.53;33.38
54870;BME280;40756;-37.950;145.008;2023-04-25T02:10:12;102483.27;;;26.06;31.08
54870;BME280;40756;-37.950;145.008;2023-04-25T02:12:42;102483.04;;;25.87;31.12
54870;BME280;40756;-37.950;145.008;2023-04-25T02:15:11;102481.43;;;25.95;29.75
54870;BME280;40756;-37.950;145.008;2023-04-25T02:17:41;102475.03;;;26.14;29.92
54870;BME280;40756;-37.950;145.008;2023-04-25T02:20:11;102469.37;;;26.47;30.28
54870;BME280;40756;-37.950;145.008;2023-04-25T02:22:40;102462.28;;;26.80;29.04
54870;BME280;40756;-37.950;145.008;2023-04-25T02:25:10;102454.21;;;26.57;28.44
54870;BME280;40756;-37.950;145.008;2023-04-25T02:27:41;102452.97;;;27.59;28.86
54870;BME280;40756;-37.950;145.008;2023-04-25T02:30:11;102449.37;;;27.92;26.87
54870;BME280;40756;-37.950;145.008;2023-04-25T02:32:41;102447.08;;;27.69;27.13
54870;BME280;40756;-37.950;145.008;2023-04-25T02:35:11;102440.45;;;28.12;26.95
54870;BME280;40756;-37.950;145.008;2023-04-25T02:37:41;102435.66;;;28.26;26.01
54870;BME280;40756;-37.950;145.008;2023-04-25T02:40:11;102428.09;;;29.17;25.65
54870;BME280;40756;-37.950;145.008;2023-04-25T02:42:41;102423.20;;;29.32;24.91
54870;BME280;40756;-37.950;145.008;2023-04-25T02:45:11;102418.51;;;29.05;25.01
54870;BME280;40756;-37.950;145.008;2023-04-25T02:47:40;102412.46;;;29.38;24.68
54870;BME280;40756;-37.950;145.008;2023-04-25T02:50:10;102409.72;;;29.68;23.55
54870;BME280;40756;-37.950;145.008;2023-04-25T02:52:40;102405.97;;;29.47;23.85
54870;BME280;40756;-37.950;145.008;2023-04-25T02:55:09;102404.65;;;29.69;23.14
54870;BME280;40756;-37.950;145.008;2023-04-25T02:57:39;102405.34;;;29.10;24.00
54870;BME280;40756;-37.950;145.008;2023-04-25T03:00:10;102402.97;;;29.33;25.10
54870;BME280;40756;-37.950;145.008;2023-04-25T03:02:39;102404.98;;;29.02;24.19
54870;BME280;40756;-37.950;145.008;2023-04-25T03:05:08;102402.75;;;29.16;25.06
54870;BME280;40756;-37.950;145.008;2023-04-25T03:07:37;102397.25;;;29.19;25.01
54870;BME280;40756;-37.950;145.008;2023-04-25T03:10:08;102391.31;;;28.72;24.71
54870;BME280;40756;-37.950;145.008;2023-04-25T03:12:39;102389.16;;;29.43;24.43
54870;BME280;40756;-37.950;145.008;2023-04-25T03:15:08;102383.18;;;28.69;25.11
54870;BME280;40756;-37.950;145.008;2023-04-25T03:17:38;102376.29;;;29.08;24.26
54870;BME280;40756;-37.950;145.008;2023-04-25T03:20:09;102371.15;;;29.27;24.33
54870;BME280;40756;-37.950;145.008;2023-04-25T03:22:39;102370.76;;;28.79;25.28
54870;BME280;40756;-37.950;145.008;2023-04-25T03:25:09;102370.29;;;28.98;23.97
54870;BME280;40756;-37.950;145.008;2023-04-25T03:27:38;102367.00;;;28.55;24.42
54870;BME280;40756;-37.950;145.008;2023-04-25T03:30:08;102368.33;;;29.10;23.58
54870;BME280;40756;-37.950;145.008;2023-04-25T03:32:38;102364.62;;;28.71;24.70
54870;BME280;40756;-37.950;145.008;2023-04-25T03:35:08;102358.32;;;29.32;23.71
54870;BME280;40756;-37.950;145.008;2023-04-25T03:37:37;102357.52;;;28.72;23.92
54870;BME280;40756;-37.950;145.008;2023-04-25T03:40:08;102357.65;;;28.54;22.74
54870;BME280;40756;-37.950;145.008;2023-04-25T03:42:38;102353.74;;;29.11;22.86
54870;BME280;40756;-37.950;145.008;2023-04-25T03:45:08;102353.58;;;28.96;22.81
54870;BME280;40756;-37.950;145.008;2023-04-25T03:47:38;102347.39;;;28.85;23.18
54870;BME280;40756;-37.950;145.008;2023-04-25T03:50:08;102350.36;;;28.56;23.52
54870;BME280;40756;-37.950;145.008;2023-04-25T03:52:38;102347.70;;;28.36;22.97
54870;BME280;40756;-37.950;145.008;2023-04-25T03:55:08;102347.04;;;28.59;22.91
54870;BME280;40756;-37.950;145.008;2023-04-25T03:57:38;102345.60;;;27.77;23.24
54870;BME280;40756;-37.950;145.008;2023-04-25T04:00:08;102340.97;;;28.06;22.85
54870;BME280;40756;-37.950;145.008;2023-04-25T04:02:38;102337.21;;;28.09;23.51
54870;BME280;40756;-37.950;145.008;2023-04-25T04:05:08;102336.03;;;28.62;23.63
54870;BME280;40756;-37.950;145.008;2023-04-25T04:07:37;102332.22;;;28.65;22.46
54870;BME280;40756;-37.950;145.008;2023-04-25T04:10:07;102322.07;;;29.18;22.16
54870;BME280;40756;-37.950;145.008;2023-04-25T04:12:38;102320.09;;;29.50;22.12
54870;BME280;40756;-37.950;145.008;2023-04-25T04:15:08;102318.68;;;29.56;22.37
54870;BME280;40756;-37.950;145.008;2023-04-25T04:17:39;102320.86;;;27.82;23.56
54870;BME280;40756;-37.950;145.008;2023-04-25T04:20:09;102317.24;;;28.56;22.40
54870;BME280;40756;-37.950;145.008;2023-04-25T04:22:38;102308.95;;;28.89;22.31
54870;BME280;40756;-37.950;145.008;2023-04-25T04:25:08;102308.91;;;28.69;22.81
54870;BME280;40756;-37.950;145.008;2023-04-25T04:27:38;102307.11;;;28.46;23.20
54870;BME280;40756;-37.950;145.008;2023-04-25T04:30:09;102302.05;;;28.14;24.12
54870;BME280;40756;-37.950;145.008;2023-04-25T04:32:38;102298.26;;;27.91;24.19
54870;BME280;40756;-37.950;145.008;2023-04-25T04:35:08;102293.59;;;28.45;23.20
54870;BME280;40756;-37.950;145.008;2023-04-25T04:37:38;102294.39;;;28.21;23.84
54870;BME280;40756;-37.950;145.008;2023-04-25T04:40:09;102291.31;;;28.61;23.30
54870;BME280;40756;-37.950;145.008;2023-04-25T04:42:38;102290.47;;;28.97;23.46
54870;BME280;40756;-37.950;145.008;2023-04-25T04:45:08;102292.54;;;28.26;23.47
54870;BME280;40756;-37.950;145.008;2023-04-25T04:47:39;102293.01;;;28.17;23.38
54870;BME280;40756;-37.950;145.008;2023-04-25T04:50:10;102291.47;;;27.95;23.84
54870;BME280;40756;-37.950;145.008;2023-04-25T04:52:40;102292.28;;;27.35;24.00
54870;BME280;40756;-37.950;145.008;2023-04-25T04:55:10;102291.44;;;27.93;23.87
54870;BME280;40756;-37.950;145.008;2023-04-25T04:57:40;102291.64;;;26.89;25.02
54870;BME280;40756;-37.950;145.008;2023-04-25T05:00:10;102293.31;;;27.20;25.23
54870;BME280;40756;-37.950;145.008;2023-04-25T05:02:40;102295.21;;;27.13;24.76
54870;BME280;40756;-37.950;145.008;2023-04-25T05:05:10;102294.06;;;27.47;25.01
54870;BME280;40756;-37.950;145.008;2023-04-25T05:07:39;102296.33;;;26.15;26.70
54870;BME280;40756;-37.950;145.008;2023-04-25T05:10:10;102290.62;;;26.69;26.11
54870;BME280;40756;-37.950;145.008;2023-04-25T05:12:40;102290.19;;;26.57;27.79
54870;BME280;40756;-37.950;145.008;2023-04-25T05:15:10;102283.62;;;26.21;26.70
54870;BME280;40756;-37.950;145.008;2023-04-25T05:17:40;102285.48;;;25.99;27.93
54870;BME280;40756;-37.950;145.008;2023-04-25T05:20:10;102286.50;;;26.63;27.39
54870;BME280;40756;-37.950;145.008;2023-04-25T05:22:40;102286.01;;;26.39;27.49
54870;BME280;40756;-37.950;145.008;2023-04-25T05:25:09;102285.31;;;25.90;28.16
54870;BME280;40756;-37.950;145.008;2023-04-25T05:27:39;102284.28;;;25.48;27.44
54870;BME280;40756;-37.950;145.008;2023-04-25T05:30:09;102282.89;;;26.15;27.02
54870;BME280;40756;-37.950;145.008;2023-04-25T05:32:39;102283.44;;;25.10;27.46
54870;BME280;40756;-37.950;145.008;2023-04-25T05:35:08;102283.84;;;25.94;27.59
54870;BME280;40756;-37.950;145.008;2023-04-25T05:37:38;102289.17;;;25.41;27.73
54870;BME280;40756;-37.950;145.008;2023-04-25T05:40:09;102284.16;;;26.20;26.81
54870;BME280;40756;-37.950;145.008;2023-04-25T05:42:39;102286.29;;;25.96;28.24
54870;BME280;40756;-37.950;145.008;2023-04-25T05:45:09;102288.61;;;25.12;28.13
54870;BME280;40756;-37.950;145.008;2023-04-25T05:47:38;102289.02;;;25.91;27.24
54870;BME280;40756;-37.950;145.008;2023-04-25T05:50:09;102286.51;;;24.92;28.67
54870;BME280;40756;-37.950;145.008;2023-04-25T05:52:38;102282.84;;;25.28;28.72
54870;BME280;40756;-37.950;145.008;2023-04-25T05:55:08;102281.36;;;25.08;29.02
54870;BME280;40756;-37.950;145.008;2023-04-25T05:57:37;102277.69;;;25.44;29.33
54870;BME280;40756;-37.950;145.008;2023-04-25T06:00:08;102280.75;;;25.16;29.49
54870;BME280;40756;-37.950;145.008;2023-04-25T06:02:41;102280.32;;;25.60;28.41
54870;BME280;40756;-37.950;145.008;2023-04-25T06:05:36;102278.05;;;25.00;28.44
54870;BME280;40756;-37.950;145.008;2023-04-25T06:08:05;102276.10;;;26.13;27.63
54870;BME280;40756;-37.950;145.008;2023-04-25T06:10:36;102274.94;;;26.43;27.73
54870;BME280;40756;-37.950;145.008;2023-04-25T06:13:05;102271.62;;;26.50;27.46
54870;BME280;40756;-37.950;145.008;2023-04-25T06:15:35;102269.46;;;27.13;27.84
54870;BME280;40756;-37.950;145.008;2023-04-25T06:18:04;102270.20;;;27.56;26.99
54870;BME280;40756;-37.950;145.008;2023-04-25T06:20:49;102268.81;;;27.48;25.91
54870;BME280;40756;-37.950;145.008;2023-04-25T06:23:24;102266.05;;;27.15;26.65
54870;BME280;40756;-37.950;145.008;2023-04-25T06:26:25;102260.42;;;26.71;27.48
54870;BME280;40756;-37.950;145.008;2023-04-25T06:28:54;102257.62;;;26.50;27.28
54870;BME280;40756;-37.950;145.008;2023-04-25T06:31:24;102256.74;;;25.82;27.40
54870;BME280;40756;-37.950;145.008;2023-04-25T06:33:53;102254.40;;;26.29;27.16
54870;BME280;40756;-37.950;145.008;2023-04-25T06:36:23;102256.42;;;26.01;28.40
54870;BME280;40756;-37.950;145.008;2023-04-25T06:38:53;102255.66;;;25.53;28.99
54870;BME280;40756;-37.950;145.008;2023-04-25T06:41:23;102255.70;;;25.96;29.11
54870;BME280;40756;-37.950;145.008;2023-04-25T06:43:52;102254.30;;;25.32;29.91
54870;BME280;40756;-37.950;145.008;2023-04-25T06:46:28;102255.92;;;24.83;29.15
54870;BME280;40756;-37.950;145.008;2023-04-25T06:49:00;102255.70;;;25.33;29.84
54870;BME280;40756;-37.950;145.008;2023-04-25T06:51:29;102256.35;;;24.75;30.00
54870;BME280;40756;-37.950;145.008;2023-04-25T06:53:58;102253.91;;;24.79;31.15
54870;BME280;40756;-37.950;145.008;2023-04-25T06:56:29;102250.48;;;24.53;31.36
54870;BME280;40756;-37.950;145.008;2023-04-25T06:58:59;102248.64;;;24.32;32.65
54870;BME280;40756;-37.950;145.008;2023-04-25T07:01:29;102250.52;;;24.39;33.24
54870;BME280;40756;-37.950;145.008;2023-04-25T07:03:59;102251.08;;;24.16;32.70
54870;BME280;40756;-37.950;145.008;2023-04-25T07:06:30;102252.06;;;24.21;33.39
54870;BME280;40756;-37.950;145.008;2023-04-25T07:08:59;102256.80;;;23.88;34.20
54870;BME280;40756;-37.950;145.008;2023-04-25T07:11:29;102259.92;;;23.78;34.02
54870;BME280;40756;-37.950;145.008;2023-04-25T07:14:08;102260.27;;;24.03;34.33
54870;BME280;40756;-37.950;145.008;2023-04-25T07:16:38;102258.46;;;24.07;33.76
54870;BME280;40756;-37.950;145.008;2023-04-25T07:19:07;102261.34;;;23.79;34.44
54870;BME280;40756;-37.950;145.008;2023-04-25T07:21:37;102259.18;;;23.59;36.05
54870;BME280;40756;-37.950;145.008;2023-04-25T07:24:07;102258.75;;;23.04;35.88
54870;BME280;40756;-37.950;145.008;2023-04-25T07:26:43;102258.03;;;23.11;35.30
54870;BME280;40756;-37.950;145.008;2023-04-25T07:29:13;102259.72;;;22.89;36.51
54870;BME280;40756;-37.950;145.008;2023-04-25T07:31:43;102259.69;;;22.71;36.24
54870;BME280;40756;-37.950;145.008;2023-04-25T07:34:12;102257.91;;;22.40;37.14
54870;BME280;40756;-37.950;145.008;2023-04-25T07:36:41;102255.31;;;22.22;37.25
54870;BME280;40756;-37.950;145.008;2023-04-25T07:39:10;102255.82;;;21.99;37.40
54870;BME280;40756;-37.950;145.008;2023-04-25T07:41:40;102258.13;;;22.42;37.94
54870;BME280;40756;-37.950;145.008;2023-04-25T07:44:09;102259.47;;;22.34;37.28
54870;BME280;40756;-37.950;145.008;2023-04-25T07:46:38;102263.63;;;22.13;37.97
54870;BME280;40756;-37.950;145.008;2023-04-25T07:49:08;102265.03;;;21.84;37.79
54870;BME280;40756;-37.950;145.008;2023-04-25T07:51:38;102267.49;;;21.56;37.96
54870;BME280;40756;-37.950;145.008;2023-04-25T07:54:07;102266.95;;;21.74;38.52
54870;BME280;40756;-37.950;145.008;2023-04-25T07:56:36;102269.40;;;21.50;38.81
54870;BME280;40756;-37.950;145.008;2023-04-25T07:59:06;102267.77;;;21.64;38.97
54870;BME280;40756;-37.950;145.008;2023-04-25T08:01:36;102268.37;;;21.21;39.52
54870;BME280;40756;-37.950;145.008;2023-04-25T08:04:05;102265.97;;;21.49;39.86
54870;BME280;40756;-37.950;145.008;2023-04-25T08:06:34;102269.10;;;21.44;40.30
54870;BME280;40756;-37.950;145.008;2023-04-25T08:09:04;102272.31;;;21.37;40.40
54870;BME280;40756;-37.950;145.008;2023-04-25T08:11:34;102273.46;;;21.54;40.53
54870;BME280;40756;-37.950;145.008;2023-04-25T08:14:05;102275.53;;;21.22;40.49
54870;BME280;40756;-37.950;145.008;2023-04-25T08:16:34;102285.12;;;21.04;40.55
54870;BME280;40756;-37.950;145.008;2023-04-25T08:19:03;102288.70;;;20.75;40.74
54870;BME280;40756;-37.950;145.008;2023-04-25T08:21:33;102291.53;;;20.90;40.48
54870;BME280;40756;-37.950;145.008;2023-04-25T08:24:03;102290.15;;;20.74;41.00
54870;BME280;40756;-37.950;145.008;2023-04-25T08:26:32;102292.52;;;20.94;41.22
54870;BME280;40756;-37.950;145.008;2023-04-25T08:29:02;102294.14;;;20.60;41.43
54870;BME280;40756;-37.950;145.008;2023-04-25T08:31:31;102295.93;;;20.80;41.55
54870;BME280;40756;-37.950;145.008;2023-04-25T08:34:00;102302.89;;;20.79;41.52
54870;BME280;40756;-37.950;145.008;2023-04-25T08:36:30;102304.87;;;20.56;41.98
54870;BME280;40756;-37.950;145.008;2023-04-25T08:38:59;102307.34;;;20.66;41.86
54870;BME280;40756;-37.950;145.008;2023-04-25T08:41:29;102309.34;;;20.34;42.00
54870;BME280;40756;-37.950;145.008;2023-04-25T08:43:59;102313.90;;;20.52;42.19
54870;BME280;40756;-37.950;145.008;2023-04-25T08:46:30;102315.36;;;20.49;42.73
54870;BME280;40756;-37.950;145.008;2023-04-25T08:49:01;102320.06;;;20.38;42.43
54870;BME280;40756;-37.950;145.008;2023-04-25T08:51:32;102322.69;;;20.31;42.80
54870;BME280;40756;-37.950;145.008;2023-04-25T08:54:10;102323.12;;;20.20;42.86
54870;BME280;40756;-37.950;145.008;2023-04-25T08:56:40;102317.61;;;20.06;42.76
54870;BME280;40756;-37.950;145.008;2023-04-25T08:59:10;102312.31;;;19.47;43.26
54870;BME280;40756;-37.950;145.008;2023-04-25T09:01:40;102305.76;;;19.86;43.88
54870;BME280;40756;-37.950;145.008;2023-04-25T09:04:09;102307.19;;;19.56;43.87
54870;BME280;40756;-37.950;145.008;2023-04-25T09:06:40;102309.05;;;19.54;44.08
54870;BME280;40756;-37.950;145.008;2023-04-25T09:09:10;102306.82;;;19.75;43.99
54870;BME280;40756;-37.950;145.008;2023-04-25T09:11:41;102307.06;;;19.50;44.43
54870;BME280;40756;-37.950;145.008;2023-04-25T09:14:16;102303.81;;;19.59;44.93
54870;BME280;40756;-37.950;145.008;2023-04-25T09:17:03;102306.61;;;19.23;45.01
54870;BME280;40756;-37.950;145.008;2023-04-25T09:19:35;102308.82;;;19.17;45.25
54870;BME280;40756;-37.950;145.008;2023-04-25T09:22:06;102308.04;;;19.09;45.34
54870;BME280;40756;-37.950;145.008;2023-04-25T09:24:37;102309.14;;;19.11;45.43
54870;BME280;40756;-37.950;145.008;2023-04-25T09:27:08;102311.44;;;19.48;45.80
54870;BME280;40756;-37.950;145.008;2023-04-25T09:29:40;102311.19;;;19.07;45.40
54870;BME280;40756;-37.950;145.008;2023-04-25T09:32:15;102310.46;;;19.43;45.79
54870;BME280;40756;-37.950;145.008;2023-04-25T09:34:47;102314.01;;;19.28;45.86
54870;BME280;40756;-37.950;145.008;2023-04-25T09:37:20;102313.19;;;19.30;45.84
54870;BME280;40756;-37.950;145.008;2023-04-25T09:39:52;102317.12;;;19.34;46.00
54870;BME280;40756;-37.950;145.008;2023-04-25T09:42:24;102317.21;;;18.99;45.93
54870;BME280;40756;-37.950;145.008;2023-04-25T09:44:55;102319.99;;;18.97;45.89
54870;BME280;40756;-37.950;145.008;2023-04-25T09:47:25;102321.68;;;18.91;46.02
54870;BME280;40756;-37.950;145.008;2023-04-25T09:49:55;102323.48;;;18.97;46.50
54870;BME280;40756;-37.950;145.008;2023-04-25T09:52:25;102323.34;;;18.95;46.53
54870;BME280;40756;-37.950;145.008;2023-04-25T09:54:55;102321.40;;;18.92;46.75
54870;BME280;40756;-37.950;145.008;2023-04-25T09:57:26;102319.74;;;18.82;46.80
54870;BME280;40756;-37.950;145.008;2023-04-25T09:59:57;102318.14;;;18.45;47.09
54870;BME280;40756;-37.950;145.008;2023-04-25T10:02:29;102314.50;;;18.64;47.14
54870;BME280;40756;-37.950;145.008;2023-04-25T10:05:02;102316.26;;;18.80;47.30
54870;BME280;40756;-37.950;145.008;2023-04-25T10:07:38;102318.69;;;18.81;47.48
54870;BME280;40756;-37.950;145.008;2023-04-25T10:10:09;102320.70;;;18.78;47.18
54870;BME280;40756;-37.950;145.008;2023-04-25T10:12:44;102318.89;;;19.02;47.16
54870;BME280;40756;-37.950;145.008;2023-04-25T10:15:16;102317.39;;;18.70;47.29
54870;BME280;40756;-37.950;145.008;2023-04-25T10:17:46;102312.51;;;18.65;47.33
54870;BME280;40756;-37.950;145.008;2023-04-25T10:20:17;102313.92;;;18.57;47.38
54870;BME280;40756;-37.950;145.008;2023-04-25T10:22:47;102311.07;;;18.49;47.58
54870;BME280;40756;-37.950;145.008;2023-04-25T10:25:17;102310.52;;;18.48;47.38
54870;BME280;40756;-37.950;145.008;2023-04-25T10:27:47;102313.07;;;18.27;48.03
54870;BME280;40756;-37.950;145.008;2023-04-25T10:30:19;102307.55;;;18.31;48.14
54870;BME280;40756;-37.950;145.008;2023-04-25T10:32:48;102308.08;;;18.21;47.98
54870;BME280;40756;-37.950;145.008;2023-04-25T10:35:23;102305.95;;;18.53;47.97
54870;BME280;40756;-37.950;145.008;2023-04-25T10:38:05;102306.48;;;18.72;48.07
54870;BME280;40756;-37.950;145.008;2023-04-25T10:40:35;102310.33;;;18.08;48.11
54870;BME280;40756;-37.950;145.008;2023-04-25T10:43:39;102315.39;;;18.05;47.75
54870;BME280;40756;-37.950;145.008;2023-04-25T10:46:21;102317.09;;;18.32;49.96
54870;BME280;40756;-37.950;145.008;2023-04-25T10:48:52;102316.83;;;17.97;50.63
54870;BME280;40756;-37.950;145.008;2023-04-25T10:51:24;102318.23;;;18.10;49.83
54870;BME280;40756;-37.950;145.008;2023-04-25T10:54:02;102314.99;;;18.15;48.62
54870;BME280;40756;-37.950;145.008;2023-04-25T10:56:32;102314.68;;;18.45;47.72
54870;BME280;40756;-37.950;145.008;2023-04-25T10:59:07;102312.85;;;18.05;47.83
54870;BME280;40756;-37.950;145.008;2023-04-25T11:01:41;102313.13;;;18.30;48.01
54870;BME280;40756;-37.950;145.008;2023-04-25T11:04:32;102318.71;;;18.32;48.02
54870;BME280;40756;-37.950;145.008;2023-04-25T11:07:10;102323.78;;;17.95;48.03
54870;BME280;40756;-37.950;145.008;2023-04-25T11:09:42;102324.21;;;17.72;48.23
54870;BME280;40756;-37.950;145.008;2023-04-25T11:12:14;102322.94;;;18.09;48.19
54870;BME280;40756;-37.950;145.008;2023-04-25T11:14:44;102324.50;;;17.66;48.51
54870;BME280;40756;-37.950;145.008;2023-04-25T11:17:14;102324.89;;;17.99;48.63
54870;BME280;40756;-37.950;145.008;2023-04-25T11:19:44;102324.39;;;17.97;48.64
54870;BME280;40756;-37.950;145.008;2023-04-25T11:22:17;102323.33;;;17.85;48.62
54870;BME280;40756;-37.950;145.008;2023-04-25T11:24:47;102322.82;;;17.80;48.61
54870;BME280;40756;-37.950;145.008;2023-04-25T11:27:16;102323.30;;;18.09;48.65
54870;BME280;40756;-37.950;145.008;2023-04-25T11:29:46;102321.98;;;18.05;48.92
54870;BME280;40756;-37.950;145.008;2023-04-25T11:32:17;102319.31;;;17.74;48.81
54870;BME280;40756;-37.950;145.008;2023-04-25T11:34:48;102317.81;;;17.92;48.94
54870;BME280;40756;-37.950;145.008;2023-04-25T11:37:17;102316.31;;;17.97;49.06
54870;BME280;40756;-37.950;145.008;2023-04-25T11:39:47;102318.79;;;17.88;49.06
54870;BME280;40756;-37.950;145.008;2023-04-25T11:42:17;102318.62;;;17.95;49.06
54870;BME280;40756;-37.950;145.008;2023-04-25T11:44:46;102315.64;;;17.74;49.04
54870;BME280;40756;-37.950;145.008;2023-04-25T11:47:16;102315.02;;;17.97;49.21
54870;BME280;40756;-37.950;145.008;2023-04-25T11:49:45;102312.11;;;17.68;49.24
54870;BME280;40756;-37.950;145.008;2023-04-25T11:52:14;102315.16;;;17.67;49.29
54870;BME280;40756;-37.950;145.008;2023-04-25T11:54:45;102315.83;;;17.61;49.13
54870;BME280;40756;-37.950;145.008;2023-04-25T11:57:15;102316.20;;;17.55;49.21
54870;BME280;40756;-37.950;145.008;2023-04-25T11:59:47;102314.99;;;17.69;49.40
54870;BME280;40756;-37.950;145.008;2023-04-25T12:02:26;102317.41;;;17.62;49.59
54870;BME280;40756;-37.950;145.008;2023-04-25T12:05:00;102321.68;;;17.54;49.85
54870;BME280;40756;-37.950;145.008;2023-04-25T12:07:30;102320.48;;;17.47;49.95
54870;BME280;40756;-37.950;145.008;2023-04-25T12:10:03;102323.36;;;17.41;50.09
54870;BME280;40756;-37.950;145.008;2023-04-25T12:12:34;102326.34;;;17.52;52.80
54870;BME280;40756;-37.950;145.008;2023-04-25T12:15:14;102326.64;;;17.65;50.54
54870;BME280;40756;-37.950;145.008;2023-04-25T12:17:47;102330.08;;;17.59;50.08
54870;BME280;40756;-37.950;145.008;2023-04-25T12:20:18;102333.15;;;17.51;49.99
54870;BME280;40756;-37.950;145.008;2023-04-25T12:22:49;102336.04;;;17.20;50.27
54870;BME280;40756;-37.950;145.008;2023-04-25T12:25:36;102334.35;;;17.38;50.58
54870;BME280;40756;-37.950;145.008;2023-04-25T12:28:14;102331.73;;;17.29;50.89
54870;BME280;40756;-37.950;145.008;2023-04-25T12:31:01;102323.79;;;17.00;51.21
54870;BME280;40756;-37.950;145.008;2023-04-25T12:33:32;102324.52;;;16.95;51.47
54870;BME280;40756;-37.950;145.008;2023-04-25T12:36:03;102322.96;;;16.84;51.71
54870;BME280;40756;-37.950;145.008;2023-04-25T12:38:37;102321.46;;;17.04;51.94